Impacts METAR Board
IDs:

KCVB - Castroville Muni, TX, US

Updated at: 0400 UTC 18 Jan 2022
Potential Impact None Slight Moderate High
Time 17/16Z 17/17Z 17/18Z 17/19Z 17/20Z 17/21Z 17/22Z 17/23Z 18/00Z 18/01Z 18/02Z 18/03Z 18/04Z
Temp 70 72 73 73 72 66 59 52 46 52
Dewpt 16 16 16 16 16 16 12 18 18 21
Altim 30.15 30.11 30.09 30.07 30.07 30.06 30.07 30.09 30.09 30.09
VIS 10 10 10 10 10 10 10 10 10 10
CIG -- -- -- -- -- -- -- -- -- --
CoverCLRCLRCLRCLRCLRCLRCLRCLRCLRCLR
FltCatVFRVFRVFRVFRVFRVFRVFRVFRVFRVFR
WX--------------------
WDir140160170160150120000180
WSpd 6 3 4 6 6 3 0 0 0 5
WGst -- -- -- -- -- -- -- -- -- --
Raw hourly METARs



KCVB 171855Z AUTO 14006KT 10SM CLR 21/M09 A3015 RMK AO2
KCVB 171954Z AUTO 16003KT 10SM CLR 22/M09 A3011 RMK AO2
KCVB 172055Z AUTO 17004KT 10SM CLR 23/M09 A3009 RMK AO2
KCVB 172154Z AUTO 16006KT 10SM CLR 23/M09 A3007 RMK AO2
KCVB 172254Z AUTO 15006KT 10SM CLR 22/M09 A3007 RMK AO2
KCVB 172356Z AUTO 12003KT 10SM CLR 19/M09 A3006 RMK AO2
KCVB 180055Z AUTO 00000KT 10SM CLR 15/M11 A3007 RMK AO2
KCVB 180155Z AUTO 00000KT 10SM CLR 11/M08 A3009 RMK AO2
KCVB 180256Z AUTO 00000KT 10SM CLR 08/M08 A3009 RMK AO2
KCVB 180356Z AUTO 18005KT 10SM CLR 11/M06 A3009 RMK AO2